Time;durP1;ratioP1;P1;durP2;ratioP2;P2;SDS_P1;SDS_P2;PMS_P1;PMS_P2;Temp;Humidity;BMP_temperature;BMP_pressure;BME280_temperature;BME280_humidity;BME280_pressure;Samples;Min_cycle;Max_cycle;Signal;HPM_P1;HPM_P2
2022/03/24 00:00:00;;;;;;;40.78;15.83;;;;;;;3.01;45.72;99991.91;1764432;81;21007;-83
2022/03/24 00:02:26;;;;;;;37.30;15.15;;;;;;;3.02;42.21;99982.48;1764338;81;21015;-84
2022/03/24 00:04:53;;;;;;;36.73;15.50;;;;;;;2.95;45.56;99978.52;1764193;81;21030;-83
2022/03/24 00:07:20;;;;;;;35.75;14.28;;;;;;;2.92;44.75;99986.14;1764490;81;20968;-84
2022/03/24 00:09:46;;;;;;;35.92;15.43;;;;;;;2.88;46.33;99986.06;1751270;81;21003;-83
2022/03/24 00:12:14;;;;;;;40.73;17.30;;;;;;;2.84;42.43;99981.28;1738405;81;21523;-84
2022/03/24 00:14:41;;;;;;;35.00;15.15;;;;;;;2.80;41.75;99985.91;1751471;80;21031;-83
2022/03/24 00:17:08;;;;;;;34.25;16.45;;;;;;;2.74;44.81;99982.78;1764420;81;21039;-83
2022/03/24 00:19:35;;;;;;;45.35;17.80;;;;;;;2.69;45.66;99979.27;1766467;81;21022;-82
2022/03/24 00:22:02;;;;;;;40.10;16.10;;;;;;;2.64;43.92;99978.72;1769932;81;21058;-84
2022/03/24 00:24:50;;;;;;;40.70;13.58;;;;;;;2.58;43.73;99972.61;1762789;80;20979;-83
2022/03/24 00:27:17;;;;;;;41.60;15.88;;;;;;;2.56;42.76;99970.44;1795649;80;21011;-84
2022/03/24 00:29:45;;;;;;;41.08;13.83;;;;;;;2.48;43.98;99974.97;1764485;80;21039;-83
2022/03/24 00:32:12;;;;;;;33.83;16.37;;;;;;;2.40;46.20;99973.51;1764766;80;21091;-84
2022/03/24 00:34:39;;;;;;;32.58;15.28;;;;;;;2.36;44.93;99967.86;1764707;81;21019;-83
2022/03/24 00:37:08;;;;;;;36.60;14.55;;;;;;;2.33;44.69;99965.24;1749595;82;20995;-84
2022/03/24 00:39:35;;;;;;;39.42;15.50;;;;;;;2.28;45.76;99960.41;1752631;80;20979;-82
2022/03/24 00:42:11;;;;;;;33.75;15.48;;;;;;;2.24;47.49;99963.75;1764630;80;21260;-82
2022/03/24 00:44:36;;;;;;;42.05;15.72;;;;;;;2.21;44.32;99962.37;1764560;81;21007;-83
2022/03/24 00:47:05;;;;;;;35.35;14.20;;;;;;;2.17;45.31;99959.77;1764612;81;21031;-83
2022/03/24 00:49:31;;;;;;;37.50;15.23;;;;;;;2.15;44.76;99956.72;1768897;81;21015;-84
2022/03/24 00:51:58;;;;;;;37.50;14.58;;;;;;;2.15;44.62;99955.02;1766399;79;20957;-84
2022/03/24 00:54:26;;;;;;;37.03;15.70;;;;;;;2.16;45.06;99955.87;1767500;81;20983;-82
2022/03/24 00:56:53;;;;;;;32.78;14.10;;;;;;;2.14;49.09;99951.12;1761077;81;21023;-83
2022/03/24 00:59:22;;;;;;;47.35;17.42;;;;;;;2.13;44.56;99952.83;1739734;83;20992;-84
2022/03/24 01:01:49;;;;;;;33.98;14.43;;;;;;;2.13;45.77;99945.52;1743554;82;20979;-82
2022/03/24 01:04:16;;;;;;;45.63;16.25;;;;;;;2.13;47.64;99950.27;1754468;82;21027;-84
2022/03/24 01:06:43;;;;;;;33.83;14.28;;;;;;;2.13;45.04;99947.70;1756351;82;21041;-84
2022/03/24 01:09:11;;;;;;;43.98;15.63;;;;;;;2.06;46.68;99940.69;1747047;80;21030;-83
2022/03/24 01:11:38;;;;;;;37.85;14.07;;;;;;;2.03;48.81;99949.61;1723451;83;20995;-84
2022/03/24 01:14:05;;;;;;;41.55;15.93;;;;;;;1.99;49.02;99947.81;1728902;82;21032;-83
2022/03/24 01:16:32;;;;;;;37.20;14.53;;;;;;;1.94;48.40;99948.96;1750979;82;21000;-84
2022/03/24 01:18:59;;;;;;;36.90;16.77;;;;;;;1.87;45.14;99948.78;1718754;80;21052;-82
2022/03/24 01:21:25;;;;;;;43.13;15.50;;;;;;;1.81;48.97;99948.63;1751060;82;21008;-83
2022/03/24 01:23:53;;;;;;;33.08;14.65;;;;;;;1.77;48.55;99948.58;1720541;82;21046;-84
2022/03/24 01:26:20;;;;;;;45.75;17.10;;;;;;;1.55;48.29;99915.16;1751006;82;21005;-83
2022/03/24 01:28:46;;;;;;;47.62;16.57;;;;;;;1.66;49.58;99932.48;1751002;82;21008;-83
2022/03/24 01:31:14;;;;;;;45.17;18.25;;;;;;;1.60;47.63;99942.17;1750940;81;21031;-84
2022/03/24 01:33:41;;;;;;;40.52;15.45;;;;;;;1.55;49.63;99930.53;1742803;81;20984;-83
2022/03/24 01:36:09;;;;;;;50.00;19.32;;;;;;;1.50;48.70;99929.54;1749345;81;21000;-84
2022/03/24 01:38:37;;;;;;;45.80;17.45;;;;;;;1.45;49.55;99924.70;1743400;82;20992;-82
2022/03/24 01:41:05;;;;;;;42.20;16.07;;;;;;;1.39;49.70;99928.00;1742641;82;21011;-80
2022/03/24 01:43:32;;;;;;;46.08;18.07;;;;;;;1.34;50.21;99922.30;1750334;82;20961;-81
2022/03/24 01:48:34;;;;;;;46.65;18.23;;;;;;;1.30;48.64;99931.60;1759408;80;21103;-80
2022/03/24 01:51:01;;;;;;;49.85;17.67;;;;;;;1.28;47.98;99921.73;1744098;81;21035;-80
2022/03/24 01:53:28;;;;;;;47.55;18.07;;;;;;;1.25;50.97;99922.06;1758504;79;20983;-80
2022/03/24 01:55:58;;;;;;;42.10;16.57;;;;;;;1.24;47.15;99920.34;1729208;83;21014;-82
2022/03/24 01:58:26;;;;;;;41.45;17.30;;;;;;;1.19;50.23;99921.09;1736313;82;21110;-79
2022/03/24 02:00:52;;;;;;;41.88;16.45;;;;;;;1.17;50.09;99926.98;1733948;83;21077;-81
2022/03/24 02:03:21;;;;;;;36.17;15.95;;;;;;;1.12;51.92;99924.31;1734005;83;21042;-83
2022/03/24 02:05:48;;;;;;;39.53;17.20;;;;;;;1.07;49.21;99923.73;1720721;82;21058;-82
2022/03/24 02:08:14;;;;;;;40.83;17.27;;;;;;;1.04;47.96;99935.19;1723135;83;21019;-83
2022/03/24 02:10:41;;;;;;;43.95;17.25;;;;;;;0.97;51.53;99925.17;1725449;83;20982;-83
2022/03/24 02:13:09;;;;;;;41.85;16.02;;;;;;;0.94;47.53;99920.84;1734959;80;21247;-84
2022/03/24 02:15:36;;;;;;;44.30;18.00;;;;;;;0.90;52.76;99924.16;1724824;79;20995;-83
2022/03/24 02:18:03;;;;;;;37.10;15.40;;;;;;;0.89;51.63;99921.12;1732272;79;21153;-76
2022/03/24 02:20:33;;;;;;;42.15;16.45;;;;;;;0.82;50.98;99907.72;1791355;76;22189;-79
2022/03/24 02:22:58;;;;;;;43.28;16.17;;;;;;;0.77;51.25;99915.67;1693511;83;21274;-81
2022/03/24 02:25:31;;;;;;;45.12;18.42;;;;;;;0.72;51.58;99913.42;1693981;83;20961;-81
2022/03/24 02:27:55;;;;;;;48.92;16.73;;;;;;;0.68;49.09;99915.44;1751894;78;21062;-81
2022/03/24 02:30:24;;;;;;;49.45;18.85;;;;;;;0.62;50.01;99917.80;1770987;80;21082;-79
2022/03/24 02:32:52;;;;;;;46.10;17.65;;;;;;;0.54;52.72;99915.91;1762926;79;21045;-81
2022/03/24 02:35:22;;;;;;;41.68;16.17;;;;;;;0.52;51.78;99910.30;1769722;79;21009;31
2022/03/24 02:37:49;;;;;;;39.98;15.85;;;;;;;0.51;52.35;99911.11;1781901;81;21041;-81
2022/03/24 02:40:15;;;;;;;43.38;17.85;;;;;;;0.51;49.85;99908.55;1783422;80;21003;-80
2022/03/24 02:42:42;;;;;;;36.95;15.90;;;;;;;0.49;52.81;99908.50;1783350;79;21098;-80
2022/03/24 02:45:10;;;;;;;39.85;16.87;;;;;;;0.52;53.57;99907.33;1786971;80;20981;-80
2022/03/24 02:47:37;;;;;;;45.58;17.65;;;;;;;0.54;53.82;99903.12;1791772;80;20993;-81
2022/03/24 02:50:05;;;;;;;40.35;15.75;;;;;;;0.56;51.13;99899.33;1782926;79;21228;-80
2022/03/24 02:52:32;;;;;;;45.73;17.48;;;;;;;0.56;52.75;99900.19;1783483;78;21034;-81
2022/03/24 02:54:58;;;;;;;32.85;15.10;;;;;;;0.55;51.98;99906.12;1783533;80;21030;-81
2022/03/24 02:57:25;;;;;;;47.95;18.60;;;;;;;0.53;50.47;99897.95;1782968;81;21033;-80
2022/03/24 02:59:52;;;;;;;40.63;15.65;;;;;;;0.48;52.56;99897.83;1783537;80;21025;-81
2022/03/24 03:02:19;;;;;;;46.23;17.65;;;;;;;0.43;51.46;99896.82;1783635;80;20978;-83
2022/03/24 03:04:51;;;;;;;52.03;19.45;;;;;;;0.41;51.19;99901.45;1783615;80;21011;-80
2022/03/24 03:07:18;;;;;;;49.73;16.32;;;;;;;0.35;53.11;99895.31;1780579;80;20994;-84
2022/03/24 03:09:45;;;;;;;47.03;19.05;;;;;;;0.30;51.96;99894.72;1783245;80;21061;-83
2022/03/24 03:12:11;;;;;;;46.45;17.40;;;;;;;0.28;52.17;99898.93;1783351;80;21014;-82
2022/03/24 03:14:40;;;;;;;40.73;15.75;;;;;;;0.27;52.84;99893.38;1783223;80;20990;-83
2022/03/24 03:17:09;;;;;;;46.08;18.20;;;;;;;0.26;54.77;99893.80;1783378;80;20998;-80
2022/03/24 03:19:36;;;;;;;42.80;16.90;;;;;;;0.28;52.51;99890.87;1783429;81;20971;-80
2022/03/24 03:22:04;;;;;;;46.37;18.13;;;;;;;0.28;52.95;99889.97;1783543;80;21006;-80
2022/03/24 03:24:32;;;;;;;48.08;17.10;;;;;;;0.26;53.52;99891.63;1783527;80;21025;-81
2022/03/24 03:26:58;;;;;;;39.27;18.60;;;;;;;0.21;52.60;99886.80;1783312;80;21514;-81
2022/03/24 03:29:25;;;;;;;48.25;16.80;;;;;;;0.21;54.42;99879.99;1783384;80;20982;-82
2022/03/24 03:31:56;;;;;;;52.70;16.87;;;;;;;0.19;53.05;99879.94;1783116;81;20985;-82
2022/03/24 03:34:24;;;;;;;49.80;18.02;;;;;;;0.17;53.02;99874.33;1778123;78;21226;-81
2022/03/24 03:36:54;;;;;;;44.30;16.85;;;;;;;0.13;53.56;99875.07;1769715;78;21065;-80
2022/03/24 03:39:21;;;;;;;49.03;17.98;;;;;;;0.11;52.92;99880.55;1772752;78;21059;-81
2022/03/24 03:41:47;;;;;;;51.00;17.77;;;;;;;0.02;54.71;99878.60;1783147;81;21025;-80
2022/03/24 03:44:14;;;;;;;41.00;16.55;;;;;;;0.00;53.13;99881.52;1770750;80;20987;-81
2022/03/24 03:46:41;;;;;;;46.00;18.52;;;;;;;-0.04;53.95;99879.28;1783392;80;21070;-82
2022/03/24 03:49:07;;;;;;;37.33;15.53;;;;;;;-0.06;53.25;99880.03;1783567;80;20962;-82
2022/03/24 03:51:37;;;;;;;53.68;17.62;;;;;;;-0.08;54.29;99884.23;1781618;80;20961;-80
2022/03/24 03:54:08;;;;;;;43.33;15.55;;;;;;;-0.11;56.48;99885.02;1781822;81;20984;-80
2022/03/24 03:56:36;;;;;;;42.48;16.95;;;;;;;-0.09;56.20;99885.06;1795786;80;21323;-80
2022/03/24 03:59:05;;;;;;;48.95;16.87;;;;;;;-0.11;56.84;99887.98;1752413;82;21064;-79
2022/03/24 04:01:31;;;;;;;48.92;16.55;;;;;;;-0.13;56.07;99885.38;1774396;81;21279;-80
2022/03/24 04:03:58;;;;;;;41.92;15.60;;;;;;;-0.10;55.23;99888.43;1824814;77;21489;-80
2022/03/24 04:06:25;;;;;;;42.30;15.75;;;;;;;-0.08;54.25;99885.51;1748562;80;21034;-81
2022/03/24 04:08:52;;;;;;;33.05;13.48;;;;;;;-0.07;56.40;99886.84;1792681;80;20994;-81
2022/03/24 04:11:19;;;;;;;45.85;17.05;;;;;;;-0.05;54.67;99887.75;1776723;79;20991;-80
2022/03/24 04:13:46;;;;;;;44.75;16.73;;;;;;;-0.08;57.26;99889.34;1786898;79;20979;-80
2022/03/24 04:16:13;;;;;;;41.20;15.90;;;;;;;-0.06;54.94;99885.14;1850931;77;20948;-80
2022/03/24 04:18:43;;;;;;;50.55;18.32;;;;;;;-0.10;56.26;99885.48;1829115;78;20988;-80
2022/03/24 04:21:10;;;;;;;46.92;17.12;;;;;;;-0.10;56.86;99889.70;1809300;78;21018;-82
2022/03/24 04:23:40;;;;;;;46.85;16.00;;;;;;;-0.10;58.54;99885.48;1832216;78;20991;-83
2022/03/24 04:26:08;;;;;;;43.70;17.57;;;;;;;-0.09;56.23;99885.92;1807328;77;20952;-80
2022/03/24 04:28:34;;;;;;;38.17;17.40;;;;;;;-0.10;58.17;99883.31;1831370;77;21047;-80
2022/03/24 04:31:01;;;;;;;43.30;18.40;;;;;;;-0.08;56.69;99886.40;1831076;77;20943;-80
2022/03/24 04:33:28;;;;;;;40.75;17.98;;;;;;;-0.07;58.09;99879.59;1814743;78;20963;-79
2022/03/24 04:35:54;;;;;;;39.98;16.07;;;;;;;-0.06;58.70;99878.37;1834662;77;21103;-79
2022/03/24 04:38:21;;;;;;;42.20;15.85;;;;;;;-0.04;57.28;99869.05;1736681;83;21036;-80
2022/03/24 04:40:48;;;;;;;49.13;17.75;;;;;;;-0.07;59.07;99880.87;1813399;79;20966;-81
2022/03/24 04:43:15;;;;;;;45.00;16.77;;;;;;;-0.05;56.75;99883.06;1784546;79;21016;-80
2022/03/24 04:45:42;;;;;;;43.05;16.15;;;;;;;-0.05;56.99;99876.25;1738562;83;20982;-80
2022/03/24 04:48:08;;;;;;;38.98;16.27;;;;;;;-0.02;57.36;99878.02;1813213;79;21099;-80
2022/03/24 04:50:35;;;;;;;33.53;13.62;;;;;;;0.00;57.59;99875.12;1827285;79;20988;-80
2022/03/24 04:53:02;;;;;;;40.17;14.40;;;;;;;0.02;56.36;99873.88;1783279;80;21074;-80
2022/03/24 04:55:29;;;;;;;39.03;15.78;;;;;;;0.01;55.99;99869.18;1756268;82;20983;-81
2022/03/24 04:57:56;;;;;;;32.00;14.28;;;;;;;0.03;55.99;99876.48;1741647;82;21003;-80
2022/03/24 05:00:22;;;;;;;37.40;17.07;;;;;;;0.01;57.15;99865.77;1760480;82;21586;-80
2022/03/24 05:02:49;;;;;;;41.42;14.00;;;;;;;0.03;56.81;99863.70;1760389;81;21066;-80
2022/03/24 05:05:16;;;;;;;37.78;16.65;;;;;;;0.03;56.54;99862.42;1761202;81;21019;-80
2022/03/24 05:07:43;;;;;;;43.70;17.32;;;;;;;0.07;55.85;99876.17;1745187;82;21015;-80
2022/03/24 05:10:11;;;;;;;50.10;18.05;;;;;;;0.03;56.29;99877.77;1731626;83;21051;-81
2022/03/24 05:12:44;;;;;;;56.70;19.73;;;;;;;0.02;57.37;99873.48;1748898;80;21006;-80
2022/03/24 05:15:10;;;;;;;52.88;17.42;;;;;;;0.06;57.28;99868.03;1770308;80;21028;-82
2022/03/24 05:17:37;;;;;;;52.98;18.65;;;;;;;0.11;55.90;99871.18;1781404;80;20993;-81
2022/03/24 05:20:07;;;;;;;44.03;18.67;;;;;;;0.15;56.02;99870.45;1760389;81;21015;-80
2022/03/24 05:22:36;;;;;;;49.63;17.98;;;;;;;0.20;56.97;99871.87;1761465;82;21015;-80
2022/03/24 05:25:05;;;;;;;44.38;16.40;;;;;;;0.23;57.91;99869.39;1764199;80;21355;-81
2022/03/24 05:27:33;;;;;;;40.35;16.45;;;;;;;0.26;57.17;99866.94;1760750;82;21062;-80
2022/03/24 05:30:00;;;;;;;42.05;17.35;;;;;;;0.32;56.97;99865.83;1761427;82;20988;-83
2022/03/24 05:32:27;;;;;;;53.42;16.15;;;;;;;0.32;57.01;99860.72;1761588;80;21024;-82
2022/03/24 05:34:54;;;;;;;54.63;16.70;;;;;;;0.36;56.15;99861.26;1752375;82;21060;-82
2022/03/24 05:37:21;;;;;;;38.78;15.80;;;;;;;0.43;55.68;99861.00;1766117;81;21116;-79
2022/03/24 05:39:48;;;;;;;46.80;17.17;;;;;;;0.45;57.55;99854.66;1771722;80;21011;-81
2022/03/24 05:42:15;;;;;;;45.35;16.12;;;;;;;0.50;58.20;99862.06;1771753;81;20970;-80
2022/03/24 05:44:41;;;;;;;42.08;15.00;;;;;;;0.56;57.59;99865.64;1789834;80;20991;-81
2022/03/24 05:47:08;;;;;;;50.70;15.63;;;;;;;0.65;57.02;99868.00;1818349;79;21020;-80
2022/03/24 05:49:35;;;;;;;46.48;17.07;;;;;;;0.72;56.78;99862.23;1786736;80;20967;-80
2022/03/24 05:52:03;;;;;;;42.45;15.98;;;;;;;0.80;58.36;99867.14;1818847;79;20975;-79
2022/03/24 05:54:30;;;;;;;50.35;16.80;;;;;;;0.91;57.91;99868.69;1814380;79;21012;-81
2022/03/24 05:56:56;;;;;;;42.60;16.07;;;;;;;1.00;55.89;99862.53;1828207;78;22656;-82
2022/03/24 05:59:23;;;;;;;46.30;15.72;;;;;;;1.11;56.19;99861.52;1789096;80;21031;-82
2022/03/24 06:01:50;;;;;;;38.08;15.80;;;;;;;1.16;54.80;99847.14;1776753;80;20999;-83
2022/03/24 06:04:19;;;;;;;41.28;15.72;;;;;;;1.32;56.14;99858.21;1791348;79;20977;-80
2022/03/24 06:06:46;;;;;;;45.25;16.87;;;;;;;1.39;56.58;99853.70;1813123;79;21021;-84
2022/03/24 06:09:12;;;;;;;37.13;15.20;;;;;;;1.48;56.48;99852.18;1783015;80;21333;-84
2022/03/24 06:11:39;;;;;;;40.00;15.13;;;;;;;1.55;55.68;99847.63;1791343;80;20974;-82
2022/03/24 06:14:12;;;;;;;40.88;14.85;;;;;;;1.63;55.49;99855.08;1802667;79;20962;-84
2022/03/24 06:16:40;;;;;;;47.10;16.27;;;;;;;1.75;54.74;99855.77;1790729;80;20944;-84
2022/03/24 06:19:09;;;;;;;37.08;14.47;;;;;;;1.86;55.08;99853.47;1815950;78;21097;-80
2022/03/24 06:21:38;;;;;;;30.60;13.13;;;;;;;1.96;54.89;99854.12;1789377;78;20996;-81
2022/03/24 06:24:07;;;;;;;38.65;15.55;;;;;;;2.11;54.47;99844.19;1772562;79;21038;-81
2022/03/24 06:26:33;;;;;;;40.70;15.70;;;;;;;2.21;55.00;99842.69;1772011;79;21037;-84
2022/03/24 06:29:01;;;;;;;34.53;14.68;;;;;;;2.34;54.34;99842.50;1783135;80;21002;-84
2022/03/24 06:31:28;;;;;;;38.73;15.88;;;;;;;2.44;54.96;99839.28;1790271;78;21042;-83
2022/03/24 06:33:54;;;;;;;42.35;15.10;;;;;;;2.55;53.72;99832.66;1778774;80;21011;-84
2022/03/24 06:36:21;;;;;;;43.52;14.43;;;;;;;2.70;53.41;99835.06;1788689;80;21000;-83
2022/03/24 06:38:49;;;;;;;38.40;15.55;;;;;;;2.82;53.58;99827.58;1736948;79;21746;-83
2022/03/24 06:41:16;;;;;;;35.88;15.03;;;;;;;2.97;52.82;99826.57;1787853;80;20955;-82
2022/03/24 06:43:43;;;;;;;35.23;13.38;;;;;;;3.12;52.84;99826.37;1792763;78;21633;-83
2022/03/24 06:46:09;;;;;;;36.42;15.05;;;;;;;3.31;52.42;99819.42;1787042;79;21077;-82
2022/03/24 06:48:36;;;;;;;35.75;13.25;;;;;;;3.50;52.27;99819.69;1792893;79;20935;-81
2022/03/24 06:51:04;;;;;;;33.70;14.20;;;;;;;3.67;51.45;99807.10;1775834;79;21072;-82
2022/03/24 06:53:32;;;;;;;32.88;13.90;;;;;;;3.86;51.21;99810.37;1776095;79;21281;-85
2022/03/24 06:55:59;;;;;;;27.52;13.32;;;;;;;4.07;51.07;99802.48;1748776;82;21047;-82
2022/03/24 06:58:26;;;;;;;33.88;13.55;;;;;;;4.31;50.50;99809.63;1716693;82;21009;-84
2022/03/24 07:00:53;;;;;;;32.25;13.32;;;;;;;4.55;49.69;99803.45;1742227;81;21007;-85
2022/03/24 07:03:19;;;;;;;31.00;13.00;;;;;;;4.80;48.92;99796.43;1764260;78;21650;-87
2022/03/24 07:05:46;;;;;;;30.05;12.70;;;;;;;5.04;48.19;99795.34;1751788;80;21003;-88
2022/03/24 07:08:13;;;;;;;29.98;12.70;;;;;;;5.27;48.10;99792.08;1733955;82;20938;-92
2022/03/24 07:10:40;;;;;;;24.60;11.00;;;;;;;5.52;47.21;99787.53;1754605;79;21039;-91
2022/03/24 07:13:07;;;;;;;34.63;12.40;;;;;;;5.86;45.15;99784.30;1757484;81;21015;-84
2022/03/24 07:15:34;;;;;;;26.90;11.65;;;;;;;6.09;45.45;99781.86;1744333;80;21014;-87
2022/03/24 07:18:01;;;;;;;35.13;13.32;;;;;;;6.33;44.28;99786.25;1756067;80;20991;-89
2022/03/24 07:20:28;;;;;;;30.25;12.13;;;;;;;6.52;43.87;99781.98;1757580;80;21078;-82
2022/03/24 07:22:57;;;;;;;28.10;13.75;;;;;;;6.68;44.53;99782.44;1750346;80;21054;-91
2022/03/24 07:25:25;;;;;;;25.23;10.90;;;;;;;6.86;43.73;99780.30;1759683;80;20968;-83
2022/03/24 07:27:52;;;;;;;29.77;12.18;;;;;;;7.03;43.33;99782.06;1760152;80;20967;-83
2022/03/24 07:30:19;;;;;;;28.50;12.10;;;;;;;7.17;42.91;99772.58;1759811;82;21078;-83
2022/03/24 07:32:46;;;;;;;28.52;11.65;;;;;;;7.31;42.92;99762.22;1754357;82;21077;-82
2022/03/24 07:35:14;;;;;;;31.73;12.60;;;;;;;7.46;42.17;99767.38;1715134;82;21112;-81
2022/03/24 07:37:43;;;;;;;32.08;12.58;;;;;;;7.63;41.67;99754.39;1759914;79;21046;-85
2022/03/24 07:40:10;;;;;;;31.35;11.85;;;;;;;7.80;40.97;99756.06;1771835;79;21650;-89
2022/03/24 07:42:37;;;;;;;40.03;13.50;;;;;;;7.96;41.43;99756.45;1744261;81;20959;-95
2022/03/24 07:45:06;;;;;;;31.85;11.97;;;;;;;8.12;40.06;99752.92;1772006;80;20976;-84
2022/03/24 07:47:35;;;;;;;38.10;12.50;;;;;;;8.31;40.02;99750.23;1756220;81;20983;-80
2022/03/24 07:50:01;;;;;;;24.47;10.75;;;;;;;8.47;40.08;99750.59;1761762;79;21066;-81
2022/03/24 07:52:32;;;;;;;32.38;11.25;;;;;;;8.62;39.43;99743.63;1731101;83;21583;-81
2022/03/24 07:55:07;;;;;;;25.08;11.43;;;;;;;8.81;38.64;99734.81;1752602;81;21034;-81
2022/03/24 07:57:34;;;;;;;35.05;10.25;;;;;;;9.01;38.42;99739.84;1718507;83;21532;-83
2022/03/24 08:00:01;;;;;;;24.95;9.95;;;;;;;9.19;38.57;99737.55;1768000;81;21008;-82
2022/03/24 08:02:27;;;;;;;26.87;11.65;;;;;;;9.37;37.26;99741.70;1760764;81;21037;-82
2022/03/24 08:04:54;;;;;;;30.88;11.20;;;;;;;9.54;35.79;99727.23;1777470;81;20976;-81
2022/03/24 08:07:21;;;;;;;25.43;10.53;;;;;;;9.68;36.36;99725.34;1777121;81;21063;-81
2022/03/24 08:09:50;;;;;;;41.20;11.80;;;;;;;9.85;36.61;99719.97;1770833;80;20974;-81
2022/03/24 08:12:17;;;;;;;20.05;10.10;;;;;;;10.05;35.92;99713.22;1756022;81;21067;-81
2022/03/24 08:14:44;;;;;;;23.75;9.70;;;;;;;10.20;34.99;99713.89;1777536;80;20971;-82
2022/03/24 08:17:11;;;;;;;33.33;11.20;;;;;;;10.35;35.09;99708.07;1774523;80;21479;-82
2022/03/24 08:19:38;;;;;;;24.82;11.03;;;;;;;10.47;35.25;99700.53;1777577;81;21059;-81
2022/03/24 08:22:05;;;;;;;40.23;11.55;;;;;;;10.61;34.42;99706.83;1777680;80;20932;-81
2022/03/24 08:24:31;;;;;;;24.92;10.80;;;;;;;10.73;34.40;99701.88;1722481;82;21047;-82
2022/03/24 08:26:59;;;;;;;28.05;12.88;;;;;;;10.85;33.95;99699.07;1735651;83;20995;-82
2022/03/24 08:29:25;;;;;;;26.45;11.08;;;;;;;11.01;33.35;99698.82;1768240;80;20982;-83
2022/03/24 08:31:52;;;;;;;23.60;11.55;;;;;;;11.16;34.43;99701.16;1706555;84;21000;-83
2022/03/24 08:34:19;;;;;;;25.12;10.88;;;;;;;11.32;33.48;99696.09;1757018;81;21471;-81
2022/03/24 08:36:45;;;;;;;27.17;11.20;;;;;;;11.47;33.97;99701.44;1777690;80;20963;-82
2022/03/24 08:39:13;;;;;;;24.72;11.25;;;;;;;11.66;32.81;99674.60;1777313;80;21035;-81
2022/03/24 08:41:39;;;;;;;27.15;12.07;;;;;;;11.85;32.57;99682.03;1774111;81;20968;-81
2022/03/24 08:44:06;;;;;;;22.98;10.25;;;;;;;11.99;31.61;99690.89;1735371;82;20963;-82
2022/03/24 08:46:33;;;;;;;24.15;10.50;;;;;;;12.11;31.18;99686.25;1730337;83;21043;-80
2022/03/24 08:49:00;;;;;;;22.05;10.08;;;;;;;12.24;30.46;99682.10;1746212;81;21050;-82
2022/03/24 08:51:27;;;;;;;27.52;11.18;;;;;;;12.38;29.74;99682.64;1767442;81;21578;-82
2022/03/24 08:53:54;;;;;;;28.83;10.65;;;;;;;12.54;31.02;99678.77;1777377;80;21459;-82
2022/03/24 08:56:21;;;;;;;21.07;10.82;;;;;;;12.70;30.53;99676.65;1776694;81;20967;-80
2022/03/24 08:58:47;;;;;;;32.70;10.30;;;;;;;12.87;29.71;99679.28;1733960;83;20996;-83
2022/03/24 09:01:14;;;;;;;23.22;10.65;;;;;;;13.05;29.92;99663.17;1754096;80;21046;-82
2022/03/24 09:03:41;;;;;;;30.15;10.43;;;;;;;13.21;29.46;99664.93;1773895;81;21026;-82
2022/03/24 09:06:08;;;;;;;30.85;12.45;;;;;;;13.37;27.90;99654.08;1723555;81;21140;-80
2022/03/24 09:08:34;;;;;;;27.93;11.28;;;;;;;13.52;28.93;99662.34;1765004;81;20954;-82
2022/03/24 09:11:02;;;;;;;33.55;13.72;;;;;;;13.67;27.64;99654.53;1725701;83;21000;-82
2022/03/24 09:13:29;;;;;;;30.23;11.68;;;;;;;13.84;27.98;99653.17;1755667;81;21022;-82
2022/03/24 09:15:55;;;;;;;31.68;11.63;;;;;;;13.98;27.65;99653.62;1732462;83;21016;-81
2022/03/24 09:18:22;;;;;;;28.75;12.68;;;;;;;14.11;27.14;99660.20;1711372;83;20989;-82
2022/03/24 09:20:49;;;;;;;24.47;10.95;;;;;;;14.22;27.28;99648.55;1772195;80;21023;-82
2022/03/24 09:23:15;;;;;;;34.90;10.82;;;;;;;14.33;27.75;99642.08;1776209;81;20987;-82
2022/03/24 09:25:42;;;;;;;35.48;16.07;;;;;;;14.44;26.67;99631.71;1733100;83;20996;-83
2022/03/24 09:28:10;;;;;;;61.92;23.87;;;;;;;14.53;26.50;99640.58;1770552;81;21009;-83
2022/03/24 09:30:37;;;;;;;41.53;18.55;;;;;;;14.68;26.40;99635.31;1714813;83;21059;-83
2022/03/24 09:33:04;;;;;;;32.15;15.32;;;;;;;14.86;26.63;99629.91;1752602;81;21055;-81
2022/03/24 09:35:33;;;;;;;27.73;12.28;;;;;;;15.03;25.22;99637.20;1763990;79;21000;-82
2022/03/24 09:37:59;;;;;;;31.25;14.58;;;;;;;15.13;25.77;99622.88;1773406;80;21023;-81
2022/03/24 09:40:26;;;;;;;20.62;9.70;;;;;;;15.24;25.58;99619.43;1760039;81;21029;-81
2022/03/24 09:42:53;;;;;;;31.68;15.00;;;;;;;15.35;24.33;99617.72;1728347;83;21043;-83
2022/03/24 09:45:20;;;;;;;30.85;11.90;;;;;;;15.44;24.99;99616.55;1759984;81;20983;-82
2022/03/24 09:47:49;;;;;;;30.72;11.65;;;;;;;15.56;24.62;99614.78;1748652;81;20982;-84
2022/03/24 09:50:18;;;;;;;19.73;9.73;;;;;;;15.66;24.10;99606.97;1767425;79;20988;-81
2022/03/24 09:52:45;;;;;;;27.13;10.45;;;;;;;15.78;23.55;99601.75;1777383;81;21022;-83
2022/03/24 09:55:12;;;;;;;29.10;11.22;;;;;;;15.88;24.10;99590.45;1714920;83;21082;-83
2022/03/24 09:57:43;;;;;;;27.20;10.13;;;;;;;15.96;23.76;99590.16;1777465;80;20994;-83
2022/03/24 10:00:11;;;;;;;21.02;9.63;;;;;;;16.00;22.87;99587.34;1735845;83;21068;-83
2022/03/24 10:02:38;;;;;;;21.07;10.53;;;;;;;16.07;23.04;99593.19;1777656;81;20979;-84
2022/03/24 10:05:08;;;;;;;30.15;13.35;;;;;;;16.19;23.25;99581.36;1713037;81;21083;-84
2022/03/24 10:07:48;;;;;;;31.68;13.05;;;;;;;16.34;22.97;99575.48;1778252;80;21018;-83
2022/03/24 10:10:27;;;;;;;28.60;13.13;;;;;;;16.42;22.34;99567.30;1756266;81;21131;-82
2022/03/24 10:12:54;;;;;;;33.23;14.03;;;;;;;16.58;22.97;99564.89;1760550;81;21455;-83
2022/03/24 10:15:21;;;;;;;31.35;11.60;;;;;;;16.75;22.76;99554.97;1777464;80;20989;-82
2022/03/24 10:17:56;;;;;;;26.05;11.63;;;;;;;16.96;22.39;99553.23;1722344;83;20969;-83
2022/03/24 10:20:28;;;;;;;27.20;12.60;;;;;;;17.07;21.93;99547.05;1771829;81;20982;-83
2022/03/24 10:22:59;;;;;;;29.60;13.35;;;;;;;17.23;22.73;99538.86;1746284;81;21042;-81
2022/03/24 10:25:31;;;;;;;34.83;16.70;;;;;;;17.41;21.49;99536.32;1762776;81;21002;-82
2022/03/24 10:28:09;;;;;;;26.37;12.25;;;;;;;17.56;21.12;99530.33;1755921;81;21019;-83
2022/03/24 10:30:51;;;;;;;31.93;12.15;;;;;;;17.69;21.77;99518.79;1726672;82;21039;-82
2022/03/24 10:33:34;;;;;;;27.75;12.98;;;;;;;17.79;20.99;99511.31;1766951;81;21043;-80
2022/03/24 10:36:23;;;;;;;28.55;12.80;;;;;;;17.86;19.99;99516.68;1756706;81;21118;-81
2022/03/24 10:38:56;;;;;;;33.40;14.90;;;;;;;18.01;20.64;99509.84;1749292;81;20993;-83
2022/03/24 10:41:27;;;;;;;34.15;13.15;;;;;;;18.12;20.36;99503.56;1770149;81;21046;-83
2022/03/24 10:43:58;;;;;;;30.05;12.10;;;;;;;18.23;19.37;99491.20;1776712;81;21019;-81
2022/03/24 10:46:31;;;;;;;33.33;11.18;;;;;;;18.36;18.89;99488.31;1716703;83;21044;-82
2022/03/24 10:48:59;;;;;;;26.65;12.18;;;;;;;18.51;20.03;99480.59;1756866;79;20929;-83
2022/03/24 10:51:33;;;;;;;17.62;8.95;;;;;;;18.62;18.68;99475.16;1743395;82;21062;-82
2022/03/24 10:54:28;;;;;;;23.30;9.88;;;;;;;18.77;18.51;99466.90;1770240;81;21067;-84
2022/03/24 10:57:06;;;;;;;18.75;9.13;;;;;;;18.92;18.18;99467.04;1765448;81;21051;-83
2022/03/24 10:59:38;;;;;;;25.77;11.80;;;;;;;19.07;18.33;99460.95;1761638;80;21006;-84
2022/03/24 11:02:05;;;;;;;27.70;12.18;;;;;;;19.26;17.31;99459.02;1767204;81;21058;-83
2022/03/24 11:04:32;;;;;;;21.40;10.15;;;;;;;19.36;17.91;99456.73;1773441;81;21571;-82
2022/03/24 11:06:58;;;;;;;21.25;9.03;;;;;;;19.48;16.93;99457.83;1730866;82;21008;-82
2022/03/24 11:09:32;;;;;;;22.73;10.75;;;;;;;19.59;16.76;99444.87;1752177;81;21023;-81
2022/03/24 11:12:21;;;;;;;23.92;9.25;;;;;;;19.68;16.58;99445.67;1770937;81;20987;-83
2022/03/24 11:14:51;;;;;;;17.20;8.00;;;;;;;19.71;16.79;99434.12;1760588;81;21019;-83
2022/03/24 11:17:18;;;;;;;25.95;9.95;;;;;;;19.79;16.83;99435.00;1756688;80;20995;-82
2022/03/24 11:20:07;;;;;;;20.70;9.48;;;;;;;19.86;16.12;99427.13;1766384;81;20984;-83
2022/03/24 11:22:53;;;;;;;14.30;6.08;;;;;;;20.00;16.14;99421.05;1769572;81;21027;-82
2022/03/24 11:25:22;;;;;;;11.68;5.30;;;;;;;20.15;13.29;99430.67;1749118;81;20974;-80
2022/03/24 11:27:50;;;;;;;11.90;4.97;;;;;;;20.35;13.77;99417.63;1770535;81;21127;-83